createdAt,value
2023-04-16T00:00:16.093Z,7.25
2023-04-16T00:05:20.126Z,11.45
2023-04-16T00:07:51.237Z,10.95
2023-04-16T00:10:25.692Z,9.15
2023-04-16T00:12:54.868Z,11.85
2023-04-16T00:15:26.196Z,10.15
2023-04-16T00:17:55.691Z,6.25
2023-04-16T00:20:24.958Z,9.98
2023-04-16T00:22:54.961Z,9.52
2023-04-16T00:25:24.228Z,8.32
2023-04-16T00:27:53.899Z,10.02
2023-04-16T00:30:24.360Z,10.75
2023-04-16T00:32:55.705Z,9.60
2023-04-16T00:35:41.440Z,9.95
2023-04-16T00:38:11.239Z,12.63
2023-04-16T00:40:41.305Z,7.35
2023-04-16T00:43:10.807Z,8.30
2023-04-16T00:45:40.923Z,12.48
2023-04-16T00:48:12.166Z,8.98
2023-04-16T00:50:41.848Z,10.57
2023-04-16T00:53:11.362Z,8.32
2023-04-16T00:55:41.652Z,11.10
2023-04-16T00:58:10.882Z,7.78
2023-04-16T01:00:39.991Z,7.40
2023-04-16T01:03:11.798Z,7.95
2023-04-16T01:05:41.764Z,9.60
2023-04-16T01:08:18.828Z,10.43
2023-04-16T01:13:21.933Z,11.05
2023-04-16T01:15:51.967Z,10.38
2023-04-16T01:18:24.653Z,9.73
2023-04-16T01:20:55.861Z,11.00
2023-04-16T01:23:25.345Z,11.18
2023-04-16T01:25:55.838Z,11.65
2023-04-16T01:28:25.191Z,9.43
2023-04-16T01:30:54.584Z,9.85
2023-04-16T01:33:56.171Z,13.05
2023-04-16T01:36:33.564Z,9.70
2023-04-16T01:39:03.067Z,7.60
2023-04-16T01:41:42.600Z,10.93
2023-04-16T01:44:12.121Z,13.48
2023-04-16T01:46:41.733Z,11.43
2023-04-16T01:51:53.318Z,8.75
2023-04-16T01:54:23.093Z,10.18
2023-04-16T01:56:52.266Z,8.18
2023-04-16T01:59:21.539Z,9.93
2023-04-16T02:01:51.108Z,9.18
2023-04-16T02:04:24.640Z,14.02
2023-04-16T02:09:31.073Z,7.57
2023-04-16T02:12:01.762Z,10.27
2023-04-16T02:14:36.316Z,10.35
2023-04-16T02:17:10.506Z,9.80
2023-04-16T02:19:42.404Z,9.55
2023-04-16T02:22:14.867Z,7.20
2023-04-16T02:24:50.852Z,8.13
2023-04-16T02:27:20.081Z,7.45
2023-04-16T02:29:55.633Z,8.63
2023-04-16T02:32:25.368Z,8.13
2023-04-16T02:34:56.679Z,7.85
2023-04-16T02:37:32.864Z,6.95
2023-04-16T02:40:02.185Z,9.50
2023-04-16T02:42:32.664Z,7.45
2023-04-16T02:45:02.080Z,9.77
2023-04-16T02:47:34.886Z,10.45
2023-04-16T02:50:06.114Z,9.25
2023-04-16T02:52:37.424Z,9.10
2023-04-16T02:57:46.899Z,9.77
2023-04-16T03:00:16.480Z,17.98
2023-04-16T03:05:26.352Z,9.48
2023-04-16T03:07:57.530Z,14.38
2023-04-16T03:10:27.294Z,11.55
2023-04-16T03:12:56.541Z,10.82
2023-04-16T03:15:26.017Z,12.20
2023-04-16T03:17:55.457Z,7.38
2023-04-16T03:20:30.312Z,13.80
2023-04-16T03:23:01.951Z,8.85
2023-04-16T03:25:31.472Z,8.02
2023-04-16T03:28:00.898Z,12.32
2023-04-16T03:30:37.594Z,13.90
2023-04-16T03:33:08.626Z,8.40
2023-04-16T03:35:37.989Z,11.98
2023-04-16T03:38:09.487Z,11.98
2023-04-16T03:40:44.000Z,10.05
2023-04-16T03:43:23.271Z,10.30
2023-04-16T03:45:58.449Z,14.25
2023-04-16T03:48:27.859Z,13.00
2023-04-16T03:50:57.090Z,13.95
2023-04-16T03:53:35.166Z,13.52
2023-04-16T03:56:09.471Z,15.32
2023-04-16T03:58:38.700Z,7.28
2023-04-16T04:01:07.930Z,10.57
2023-04-16T04:03:43.714Z,10.98
2023-04-16T04:06:14.486Z,9.30
2023-04-16T04:08:46.159Z,11.40
2023-04-16T04:11:16.920Z,11.45
2023-04-16T04:13:52.037Z,7.43
2023-04-16T04:16:25.549Z,5.93
2023-04-16T04:18:55.348Z,6.45
2023-04-16T04:21:26.996Z,6.65
2023-04-16T04:23:58.479Z,10.18
2023-04-16T04:26:27.879Z,7.72
2023-04-16T04:28:57.129Z,7.63
2023-04-16T04:31:26.505Z,8.02
2023-04-16T04:33:55.727Z,6.15
2023-04-16T04:36:26.782Z,8.88
2023-04-16T04:41:35.831Z,8.95
2023-04-16T04:44:06.781Z,12.25
2023-04-16T04:46:42.043Z,9.15
2023-04-16T04:49:11.745Z,8.90
2023-04-16T04:51:41.115Z,8.68
2023-04-16T04:54:12.591Z,10.52
2023-04-16T04:56:47.784Z,13.43
2023-04-16T05:01:58.698Z,9.55
2023-04-16T05:04:35.102Z,8.55
2023-04-16T05:07:04.624Z,9.05
2023-04-16T05:09:40.796Z,14.07
2023-04-16T05:12:10.620Z,13.65
2023-04-16T05:14:39.793Z,11.32
2023-04-16T05:17:10.584Z,10.10
2023-04-16T05:19:40.251Z,11.02
2023-04-16T05:22:09.921Z,9.07
2023-04-16T05:24:41.376Z,9.25
2023-04-16T05:27:10.650Z,10.70
2023-04-16T05:29:57.879Z,13.30
2023-04-16T05:32:28.648Z,9.95
2023-04-16T05:35:09.880Z,13.15
2023-04-16T05:37:39.102Z,10.82
2023-04-16T05:40:12.068Z,7.85
2023-04-16T05:42:41.688Z,11.70
2023-04-16T05:45:12.033Z,11.02
2023-04-16T05:47:51.837Z,13.13
2023-04-16T05:50:21.178Z,9.93
2023-04-16T05:52:50.491Z,12.10
2023-04-16T05:55:23.093Z,11.85
2023-04-16T05:57:52.453Z,9.18
2023-04-16T06:00:27.905Z,8.18
2023-04-16T06:02:57.683Z,12.20
2023-04-16T06:05:28.538Z,12.93
2023-04-16T06:08:02.911Z,8.27
2023-04-16T06:10:34.121Z,11.65
2023-04-16T06:13:03.596Z,8.25
2023-04-16T06:15:32.874Z,9.63
2023-04-16T06:18:02.316Z,11.48
2023-04-16T06:20:37.048Z,11.68
2023-04-16T06:23:19.373Z,9.50
2023-04-16T06:25:50.769Z,9.52
2023-04-16T06:28:25.467Z,7.50
2023-04-16T06:30:54.756Z,9.82
2023-04-16T06:33:35.891Z,8.25
2023-04-16T06:36:05.618Z,8.88
2023-04-16T06:38:34.946Z,10.63
2023-04-16T06:41:06.329Z,8.85
2023-04-16T06:43:35.837Z,9.18
2023-04-16T06:46:05.523Z,7.00
2023-04-16T06:48:35.058Z,12.35
2023-04-16T06:51:14.399Z,7.30
2023-04-16T06:53:44.278Z,8.68
2023-04-16T06:56:15.737Z,7.47
2023-04-16T07:01:25.223Z,8.65
2023-04-16T07:03:54.792Z,6.93
2023-04-16T07:06:24.182Z,9.23
2023-04-16T07:08:53.945Z,8.27
2023-04-16T07:11:25.582Z,6.28
2023-04-16T07:14:01.076Z,5.10
2023-04-16T07:16:30.482Z,5.80
2023-04-16T07:18:59.711Z,7.32
2023-04-16T07:21:36.032Z,4.93
2023-04-16T07:24:10.259Z,9.40
2023-04-16T07:26:41.572Z,5.28
2023-04-16T07:29:16.753Z,4.30
2023-04-16T07:31:46.576Z,5.55
2023-04-16T07:34:16.028Z,6.00
2023-04-16T07:36:45.409Z,5.20
2023-04-16T07:39:20.905Z,6.68
2023-04-16T07:41:52.302Z,9.02
2023-04-16T07:44:26.876Z,4.57
2023-04-16T07:46:56.191Z,5.80
2023-04-16T07:49:25.650Z,3.97
2023-04-16T07:51:54.875Z,6.93
2023-04-16T07:54:24.152Z,5.75
2023-04-16T07:56:55.415Z,8.77
2023-04-16T07:59:30.129Z,7.00
2023-04-16T08:01:59.761Z,8.77
2023-04-16T08:04:40.912Z,3.93
2023-04-16T08:07:10.583Z,4.30
2023-04-16T08:09:50.278Z,4.40
2023-04-16T08:12:22.789Z,5.03
2023-04-16T08:14:52.406Z,3.78
2023-04-16T08:17:21.682Z,7.90
2023-04-16T08:19:51.393Z,6.90
2023-04-16T08:22:26.025Z,8.88
2023-04-16T08:25:01.383Z,5.50
2023-04-16T08:27:33.142Z,4.70
2023-04-16T08:30:02.440Z,6.22
2023-04-16T08:32:42.183Z,5.10
2023-04-16T08:35:12.538Z,7.03
2023-04-16T08:37:41.927Z,8.60
2023-04-16T08:40:12.065Z,8.35
2023-04-16T08:42:50.801Z,5.20
2023-04-16T08:45:20.486Z,9.25
2023-04-16T08:47:50.937Z,5.00
2023-04-16T08:50:24.252Z,5.45
2023-04-16T08:53:06.470Z,5.80
2023-04-16T08:55:39.431Z,8.55
2023-04-16T08:58:16.166Z,8.10
2023-04-16T09:00:46.052Z,5.85
2023-04-16T09:03:15.635Z,4.80
2023-04-16T09:05:46.305Z,5.97
2023-04-16T09:08:15.883Z,8.13
2023-04-16T09:10:45.498Z,4.30
2023-04-16T09:13:23.293Z,7.25
2023-04-16T09:15:56.763Z,6.00
2023-04-16T09:18:27.832Z,4.82
2023-04-16T09:20:57.655Z,7.65
2023-04-16T09:23:26.916Z,6.97
2023-04-16T09:25:57.432Z,4.97
2023-04-16T09:28:47.417Z,8.73
2023-04-16T09:31:22.083Z,4.22
2023-04-16T09:34:04.761Z,12.65
2023-04-16T09:36:35.113Z,4.65
2023-04-16T09:39:06.108Z,10.18
2023-04-16T09:41:44.280Z,8.43
2023-04-16T09:44:15.738Z,5.47
2023-04-16T09:46:45.387Z,6.55
2023-04-16T09:49:16.887Z,6.85
2023-04-16T09:51:47.734Z,7.28
2023-04-16T09:54:17.111Z,7.53
2023-04-16T09:56:47.662Z,6.78
2023-04-16T09:59:22.016Z,6.55
2023-04-16T10:02:15.750Z,5.32
2023-04-16T10:04:52.917Z,6.22
2023-04-16T10:07:23.065Z,7.68
2023-04-16T10:09:52.872Z,8.23
2023-04-16T10:12:22.794Z,5.95
2023-04-16T10:14:59.141Z,7.97
2023-04-16T10:17:30.238Z,6.32
2023-04-16T10:20:01.224Z,8.15
2023-04-16T10:25:06.287Z,4.00
2023-04-16T10:27:35.876Z,8.50
2023-04-16T10:32:55.291Z,4.60
2023-04-16T10:35:27.364Z,13.30
2023-04-16T10:37:58.806Z,17.42
2023-04-16T10:40:34.459Z,11.00
2023-04-16T10:43:03.962Z,4.70
2023-04-16T10:45:40.046Z,7.53
2023-04-16T10:48:11.501Z,6.35
2023-04-16T10:50:41.174Z,6.70
2023-04-16T10:53:20.965Z,5.25
2023-04-16T10:56:13.814Z,7.47
2023-04-16T10:58:43.762Z,5.55
2023-04-16T11:01:20.330Z,7.97
2023-04-16T11:03:50.135Z,7.43
2023-04-16T11:06:26.744Z,5.60
2023-04-16T11:08:56.419Z,7.55
2023-04-16T11:11:25.812Z,6.22
2023-04-16T11:13:58.968Z,8.52
2023-04-16T11:16:33.739Z,5.78
2023-04-16T11:19:08.519Z,7.25
2023-04-16T11:21:47.960Z,4.57
2023-04-16T11:26:53.992Z,9.48
2023-04-16T11:29:23.321Z,4.70
2023-04-16T11:31:59.810Z,6.28
2023-04-16T11:34:29.272Z,7.85
2023-04-16T11:36:58.829Z,5.65
2023-04-16T11:39:28.422Z,5.50
2023-04-16T11:41:57.742Z,8.88
2023-04-16T11:44:28.978Z,5.50
2023-04-16T11:47:00.325Z,6.50
2023-04-16T11:54:52.688Z,5.43
2023-04-16T11:57:27.593Z,6.38
2023-04-16T12:00:02.381Z,8.32
2023-04-16T12:02:46.387Z,7.60
2023-04-16T12:05:30.850Z,5.88
2023-04-16T12:08:06.420Z,5.25
2023-04-16T12:10:55.792Z,7.00
2023-04-16T12:13:25.252Z,6.25
2023-04-16T12:15:55.651Z,5.90
2023-04-16T12:18:33.149Z,4.28
2023-04-16T12:21:18.512Z,8.30
2023-04-16T12:23:48.008Z,5.43
2023-04-16T12:26:17.783Z,9.82
2023-04-16T12:28:47.032Z,8.73
2023-04-16T12:31:44.072Z,6.43
2023-04-16T12:34:21.528Z,5.63
2023-04-16T12:37:09.106Z,9.82
2023-04-16T12:39:38.469Z,7.80
2023-04-16T12:42:15.926Z,4.97
2023-04-16T12:52:07.118Z,7.25
2023-04-16T12:57:05.613Z,9.55
2023-04-16T12:59:42.041Z,6.55
2023-04-16T13:02:11.347Z,7.00
2023-04-16T13:04:40.996Z,5.85
2023-04-16T13:07:12.429Z,5.70
2023-04-16T13:09:48.344Z,5.05
2023-04-16T13:12:19.181Z,6.90
2023-04-16T13:14:48.532Z,5.83
2023-04-16T13:17:17.910Z,7.32
2023-04-16T13:19:52.490Z,5.28
2023-04-16T13:22:26.405Z,6.18
2023-04-16T13:25:01.739Z,8.05
2023-04-16T13:27:32.742Z,6.83
2023-04-16T13:30:02.260Z,5.80
2023-04-16T13:32:34.577Z,11.65
2023-04-16T13:35:09.711Z,6.43
2023-04-16T13:37:41.507Z,5.07
2023-04-16T13:40:17.045Z,3.72
2023-04-16T13:42:46.386Z,6.53
2023-04-16T13:45:19.992Z,5.07
2023-04-16T13:47:49.497Z,4.40
2023-04-16T13:50:18.814Z,8.10
2023-04-16T13:52:55.064Z,5.60
2023-04-16T13:55:24.600Z,3.92
2023-04-16T13:57:56.269Z,4.13
2023-04-16T14:00:27.373Z,3.70
2023-04-16T14:02:57.135Z,4.13
2023-04-16T14:08:04.034Z,4.72
2023-04-16T14:10:33.799Z,9.18
2023-04-16T14:13:03.146Z,5.55
2023-04-16T14:15:32.705Z,3.88
2023-04-16T14:18:03.400Z,5.15
2023-04-16T14:20:35.647Z,6.95
2023-04-16T14:23:12.169Z,6.10
2023-04-16T14:25:41.736Z,7.55
2023-04-16T14:28:11.075Z,3.85
2023-04-16T14:30:40.679Z,3.95
2023-04-16T14:33:09.849Z,5.75
2023-04-16T14:35:39.153Z,4.22
2023-04-16T14:38:08.581Z,9.80
2023-04-16T14:40:39.908Z,8.70
2023-04-16T14:43:09.300Z,7.82
2023-04-16T14:45:38.706Z,15.70
2023-04-16T14:48:08.748Z,5.47
2023-04-16T14:50:38.634Z,6.90
2023-04-16T14:53:07.974Z,6.50
2023-04-16T14:55:37.533Z,4.88
2023-04-16T14:58:09.267Z,6.82
2023-04-16T15:03:07.984Z,4.30
2023-04-16T15:05:38.553Z,4.55
2023-04-16T15:08:08.122Z,6.22
2023-04-16T15:10:37.732Z,6.15
2023-04-16T15:15:49.144Z,5.03
2023-04-16T15:18:18.667Z,5.13
2023-04-16T15:23:32.970Z,4.28
2023-04-16T15:26:02.439Z,11.80
2023-04-16T15:28:33.625Z,4.70
2023-04-16T15:31:03.263Z,5.68
2023-04-16T15:33:32.572Z,6.10
2023-04-16T15:36:01.787Z,6.28
2023-04-16T15:38:31.714Z,4.25
2023-04-16T15:41:01.668Z,3.63
2023-04-16T15:43:38.328Z,6.57
2023-04-16T15:46:08.985Z,7.20
2023-04-16T15:48:38.354Z,5.25
2023-04-16T15:51:08.135Z,10.00
2023-04-16T15:53:37.567Z,5.70
2023-04-16T15:56:07.326Z,7.35
2023-04-16T15:58:38.988Z,5.85
2023-04-16T16:01:09.538Z,13.95
2023-04-16T16:03:39.516Z,11.18
2023-04-16T16:06:14.417Z,15.18
2023-04-16T16:08:44.040Z,13.23
2023-04-16T16:11:13.171Z,8.95
2023-04-16T16:13:44.449Z,11.63
2023-04-16T16:16:19.226Z,9.73
2023-04-16T16:18:48.584Z,9.68
2023-04-16T16:21:18.145Z,11.75
2023-04-16T16:23:48.695Z,13.23
2023-04-16T16:26:18.117Z,10.55
2023-04-16T16:28:54.423Z,10.23
2023-04-16T16:31:26.499Z,11.38
2023-04-16T16:33:56.245Z,19.75
2023-04-16T16:36:26.275Z,12.07
2023-04-16T16:38:56.627Z,15.93
2023-04-16T16:41:27.133Z,12.40
2023-04-16T16:43:58.781Z,16.10
2023-04-16T16:46:33.173Z,14.98
2023-04-16T16:49:10.110Z,20.95
2023-04-16T16:51:39.911Z,18.20
2023-04-16T16:56:49.835Z,14.80
2023-04-16T16:59:26.061Z,16.35
2023-04-16T17:01:55.564Z,16.20
2023-04-16T17:04:25.009Z,14.63
2023-04-16T17:06:54.475Z,14.30
2023-04-16T17:09:23.783Z,16.38
2023-04-16T17:11:53.245Z,16.50
2023-04-16T17:14:24.629Z,18.15
2023-04-16T17:17:00.182Z,15.98
2023-04-16T17:19:29.762Z,13.75
2023-04-16T17:21:59.211Z,18.85
2023-04-16T17:24:29.755Z,15.20
2023-04-16T17:29:41.762Z,14.25
2023-04-16T17:32:39.863Z,17.13
2023-04-16T17:35:10.654Z,14.57
2023-04-16T17:37:44.932Z,20.90
2023-04-16T17:40:17.753Z,20.00
2023-04-16T17:42:47.208Z,19.20
2023-04-16T17:45:23.476Z,17.15
2023-04-16T17:47:53.285Z,12.70
2023-04-16T17:50:22.554Z,22.60
2023-04-16T17:52:51.859Z,21.95
2023-04-16T17:55:21.323Z,15.38
2023-04-16T17:57:50.692Z,18.75
2023-04-16T18:00:23.323Z,19.75
2023-04-16T18:02:59.383Z,18.20
2023-04-16T18:05:29.087Z,15.60
2023-04-16T18:07:58.481Z,15.55
2023-04-16T18:10:36.174Z,15.70
2023-04-16T18:13:05.541Z,18.35
2023-04-16T18:15:39.800Z,16.73
2023-04-16T18:18:09.726Z,18.10
2023-04-16T18:20:39.159Z,17.73
2023-04-16T18:23:08.526Z,21.25
2023-04-16T18:25:38.141Z,20.58
2023-04-16T18:28:15.368Z,15.40
2023-04-16T18:30:46.547Z,24.08
2023-04-16T18:33:54.226Z,18.05
2023-04-16T18:36:23.340Z,17.55
2023-04-16T18:41:27.903Z,21.40
2023-04-16T18:43:57.361Z,19.13
2023-04-16T18:46:28.772Z,21.17
2023-04-16T18:48:58.694Z,17.80
2023-04-16T18:51:28.048Z,14.45
2023-04-16T18:53:57.447Z,20.23
2023-04-16T18:56:26.792Z,15.77
2023-04-16T18:58:56.372Z,17.67
2023-04-16T19:01:27.983Z,16.17
2023-04-16T19:03:57.342Z,18.15
2023-04-16T19:06:27.289Z,17.88
2023-04-16T19:09:20.202Z,13.63
2023-04-16T19:12:02.467Z,16.25
2023-04-16T19:14:36.711Z,19.35
2023-04-16T19:17:19.636Z,18.88
2023-04-16T19:22:23.850Z,18.02
2023-04-16T19:24:54.277Z,16.83
2023-04-16T19:27:23.707Z,17.42
2023-04-16T19:29:52.989Z,18.77
2023-04-16T19:32:29.453Z,17.80
2023-04-16T19:35:03.981Z,14.68
2023-04-16T19:37:33.717Z,14.07
2023-04-16T19:40:05.461Z,18.08
2023-04-16T19:42:40.228Z,17.50
2023-04-16T19:45:10.491Z,17.25
2023-04-16T19:50:18.095Z,14.02
2023-04-16T19:52:47.517Z,15.48
2023-04-16T19:55:22.423Z,14.30
2023-04-16T19:57:51.677Z,18.20
2023-04-16T20:00:21.586Z,19.23
2023-04-16T20:02:52.844Z,15.50
2023-04-16T20:05:22.247Z,15.80
2023-04-16T20:07:52.717Z,17.20
2023-04-16T20:10:22.417Z,14.00
2023-04-16T20:12:52.045Z,18.05
2023-04-16T20:15:27.009Z,15.00
2023-04-16T20:17:58.335Z,19.23
2023-04-16T20:20:27.741Z,19.73
2023-04-16T20:23:08.001Z,13.75
2023-04-16T20:25:37.479Z,11.95
2023-04-16T20:28:07.161Z,20.30
2023-04-16T20:33:25.287Z,11.85
2023-04-16T20:38:31.827Z,17.30
2023-04-16T20:41:10.166Z,15.55
2023-04-16T20:43:44.450Z,10.02
2023-04-16T20:46:14.354Z,15.40
2023-04-16T20:48:45.809Z,13.55
2023-04-16T20:51:15.454Z,14.55
2023-04-16T20:53:44.617Z,10.57
2023-04-16T20:56:23.974Z,12.35
2023-04-16T20:58:53.670Z,14.30
2023-04-16T21:01:23.029Z,17.60
2023-04-16T21:04:00.250Z,11.85
2023-04-16T21:06:32.442Z,17.85
2023-04-16T21:09:12.334Z,16.25
2023-04-16T21:11:41.680Z,15.18
2023-04-16T21:14:11.080Z,17.10
2023-04-16T21:16:40.794Z,16.05
2023-04-16T21:19:14.541Z,20.17
2023-04-16T21:21:43.817Z,18.58
2023-04-16T21:24:12.946Z,21.35
2023-04-16T21:26:47.245Z,17.05
2023-04-16T21:29:16.964Z,27.23
2023-04-16T21:31:46.172Z,23.65
2023-04-16T21:34:22.500Z,20.70
2023-04-16T21:36:51.860Z,29.60
2023-04-16T21:39:22.455Z,24.42
2023-04-16T21:41:51.754Z,22.70
2023-04-16T21:44:20.942Z,24.85
2023-04-16T21:46:50.346Z,25.50
2023-04-16T21:49:21.576Z,25.98
2023-04-16T21:51:58.630Z,33.33
2023-04-16T21:54:27.911Z,30.92
2023-04-16T21:56:57.808Z,28.38
2023-04-16T21:59:27.047Z,29.23
2023-04-16T22:01:56.484Z,24.92
2023-04-16T22:04:36.695Z,24.92
2023-04-16T22:07:11.436Z,23.42
2023-04-16T22:09:41.199Z,23.27
2023-04-16T22:12:11.008Z,20.00
2023-04-16T22:14:49.211Z,30.73
2023-04-16T22:17:29.930Z,24.17
2023-04-16T22:20:08.663Z,26.50
2023-04-16T22:22:37.971Z,23.20
2023-04-16T22:25:08.351Z,22.17
2023-04-16T22:27:37.740Z,28.38
2023-04-16T22:30:08.879Z,22.00
2023-04-16T22:32:43.268Z,28.80
2023-04-16T22:35:14.732Z,25.38
2023-04-16T22:37:54.117Z,25.80
2023-04-16T22:40:23.361Z,24.75
2023-04-16T22:42:52.631Z,25.08
2023-04-16T22:45:27.315Z,20.70
2023-04-16T22:47:56.655Z,25.85
2023-04-16T22:50:28.202Z,21.02
2023-04-16T22:53:02.555Z,25.48
2023-04-16T22:55:31.768Z,22.63
2023-04-16T22:58:02.708Z,24.40
2023-04-16T23:00:39.583Z,20.90
2023-04-16T23:03:09.060Z,21.25
2023-04-16T23:05:45.393Z,19.27
2023-04-16T23:08:14.699Z,16.63
2023-04-16T23:10:43.921Z,14.90
2023-04-16T23:13:13.083Z,21.05
2023-04-16T23:15:43.347Z,15.90
2023-04-16T23:18:12.656Z,19.33
2023-04-16T23:20:42.136Z,18.23
2023-04-16T23:23:13.610Z,17.60
2023-04-16T23:25:47.989Z,15.05
2023-04-16T23:28:17.250Z,18.48
2023-04-16T23:30:46.476Z,12.23
2023-04-16T23:33:20.751Z,12.02
2023-04-16T23:35:55.232Z,14.27
2023-04-16T23:38:26.620Z,11.77
2023-04-16T23:40:55.902Z,9.98
2023-04-16T23:43:36.598Z,12.63
2023-04-16T23:46:05.944Z,12.65
2023-04-16T23:48:35.249Z,11.80
2023-04-16T23:51:09.756Z,15.85
2023-04-16T23:53:46.822Z,11.60
2023-04-16T23:58:51.625Z,13.93
